createdAt,value
2023-04-16T00:00:06.768Z,47.53
2023-04-16T00:01:06.729Z,50.87
2023-04-16T00:02:06.710Z,46.29
2023-04-16T00:03:07.364Z,47.02
2023-04-16T00:04:06.797Z,50.92
2023-04-16T00:05:06.713Z,50.03
2023-04-16T00:06:06.924Z,50.57
2023-04-16T00:07:06.652Z,50.77
2023-04-16T00:08:06.543Z,49.64
2023-04-16T00:09:06.639Z,48.63
2023-04-16T00:10:06.592Z,49.18
2023-04-16T00:11:07.648Z,47.56
2023-04-16T00:12:06.600Z,51.11
2023-04-16T00:13:06.587Z,54.24
2023-04-16T00:14:06.606Z,52.25
2023-04-16T00:15:06.561Z,48.77
2023-04-16T00:16:06.529Z,51.64
2023-04-16T00:17:07.719Z,54.61
2023-04-16T00:18:06.503Z,50.11
2023-04-16T00:19:06.495Z,47.17
2023-04-16T00:20:06.608Z,47.79
2023-04-16T00:21:06.606Z,48.00
2023-04-16T00:22:06.660Z,53.04
2023-04-16T00:23:06.517Z,49.84
2023-04-16T00:24:06.585Z,48.01
2023-04-16T00:25:06.497Z,48.06
2023-04-16T00:26:07.552Z,53.22
2023-04-16T00:27:06.494Z,50.34
2023-04-16T00:28:06.519Z,50.61
2023-04-16T00:29:06.438Z,47.08
2023-04-16T00:30:06.476Z,51.74
2023-04-16T00:31:06.534Z,51.82
2023-04-16T00:32:06.455Z,48.64
2023-04-16T00:33:06.438Z,51.65
2023-04-16T00:34:06.371Z,53.27
2023-04-16T00:35:06.369Z,54.00
2023-04-16T00:36:06.459Z,51.71
2023-04-16T00:37:06.400Z,49.65
2023-04-16T00:38:06.471Z,49.05
2023-04-16T00:39:06.562Z,49.40
2023-04-16T00:40:06.394Z,51.37
2023-04-16T00:41:06.427Z,52.38
2023-04-16T00:42:06.463Z,50.25
2023-04-16T00:43:06.444Z,50.62
2023-04-16T00:44:06.368Z,51.87
2023-04-16T00:45:06.426Z,49.54
2023-04-16T00:46:06.388Z,50.86
2023-04-16T00:47:06.323Z,51.73
2023-04-16T00:48:06.360Z,52.73
2023-04-16T00:49:06.396Z,54.47
2023-04-16T00:50:06.248Z,51.38
2023-04-16T00:51:06.217Z,52.03
2023-04-16T00:52:06.288Z,54.46
2023-04-16T00:53:06.203Z,48.69
2023-04-16T00:54:06.237Z,51.60
2023-04-16T00:55:06.281Z,53.28
2023-04-16T00:56:06.228Z,49.42
2023-04-16T00:57:06.197Z,50.62
2023-04-16T00:58:06.292Z,49.91
2023-04-16T00:59:06.252Z,49.46
2023-04-16T01:00:06.376Z,50.06
2023-04-16T01:01:06.319Z,46.78
2023-04-16T01:02:06.381Z,47.40
2023-04-16T01:03:06.406Z,51.02
2023-04-16T01:04:06.388Z,55.05
2023-04-16T01:05:06.198Z,50.22
2023-04-16T01:06:06.376Z,52.12
2023-04-16T01:07:06.171Z,54.40
2023-04-16T01:08:06.124Z,53.68
2023-04-16T01:09:06.190Z,52.95
2023-04-16T01:10:06.175Z,49.21
2023-04-16T01:11:06.573Z,49.67
2023-04-16T01:12:06.149Z,49.72
2023-04-16T01:13:06.123Z,46.19
2023-04-16T01:14:06.071Z,48.37
2023-04-16T02:32:25.480Z,48.95
2023-04-16T02:33:25.461Z,48.33
2023-04-16T02:34:25.519Z,48.74
2023-04-16T02:35:25.469Z,45.22
2023-04-16T02:36:25.496Z,45.49
2023-04-16T02:37:25.435Z,45.69
2023-04-16T02:38:25.556Z,47.37
2023-04-16T02:39:25.517Z,51.29
2023-04-16T02:40:25.492Z,46.64
2023-04-16T02:41:25.462Z,46.47
2023-04-16T02:42:25.509Z,54.85
2023-04-16T02:43:25.446Z,52.02
2023-04-16T02:44:25.465Z,49.43
2023-04-16T02:45:25.461Z,55.09
2023-04-16T02:46:25.928Z,50.51
2023-04-16T02:47:25.531Z,51.48
2023-04-16T02:48:25.519Z,46.74
2023-04-16T02:49:25.452Z,47.22
2023-04-16T02:50:25.489Z,48.56
2023-04-16T02:51:25.452Z,51.69
2023-04-16T02:52:25.463Z,50.58
2023-04-16T02:53:25.406Z,48.17
2023-04-16T02:54:25.386Z,50.46
2023-04-16T02:55:25.368Z,49.14
2023-04-16T02:56:25.329Z,52.67
2023-04-16T02:57:25.368Z,50.62
2023-04-16T02:58:25.346Z,50.98
2023-04-16T02:59:25.254Z,49.83
2023-04-16T03:00:25.281Z,50.70
2023-04-16T03:01:25.321Z,47.24
2023-04-16T03:02:26.257Z,50.14
2023-04-16T03:03:25.272Z,47.91
2023-04-16T03:04:25.266Z,47.85
2023-04-16T03:05:25.230Z,46.96
2023-04-16T03:06:25.234Z,51.60
2023-04-16T03:07:25.206Z,51.25
2023-04-16T03:08:25.225Z,54.53
2023-04-16T03:09:25.249Z,54.33
2023-04-16T03:10:25.188Z,56.30
2023-04-16T03:11:25.322Z,48.97
2023-04-16T03:12:25.341Z,51.28
2023-04-16T03:13:25.312Z,53.17
2023-04-16T03:14:25.249Z,49.45
2023-04-16T03:15:25.361Z,48.84
2023-04-16T03:16:26.223Z,47.88
2023-04-16T03:17:25.367Z,49.91
2023-04-16T03:18:25.193Z,46.69
2023-04-16T03:19:25.220Z,49.64
2023-04-16T03:20:25.245Z,50.87
2023-04-16T03:21:25.193Z,49.69
2023-04-16T03:22:25.088Z,54.46
2023-04-16T03:23:25.109Z,55.55
2023-04-16T03:24:25.181Z,54.21
2023-04-16T03:25:25.104Z,51.91
2023-04-16T03:26:25.118Z,50.64
2023-04-16T03:27:25.080Z,50.52
2023-04-16T03:28:25.104Z,50.84
2023-04-16T03:29:25.143Z,49.15
2023-04-16T03:30:25.155Z,50.88
2023-04-16T03:31:25.645Z,47.20
2023-04-16T03:32:25.205Z,50.38
2023-04-16T03:33:25.108Z,53.90
2023-04-16T03:34:25.176Z,52.47
2023-04-16T03:35:25.096Z,54.79
2023-04-16T03:36:25.157Z,54.15
2023-04-16T03:37:25.092Z,48.71
2023-04-16T03:38:25.160Z,47.42
2023-04-16T03:39:25.058Z,52.11
2023-04-16T03:40:25.043Z,49.06
2023-04-16T03:41:25.047Z,50.88
2023-04-16T03:42:25.094Z,52.39
2023-04-16T03:43:25.042Z,55.73
2023-04-16T03:44:24.969Z,53.40
2023-04-16T03:45:24.947Z,51.61
2023-04-16T03:46:25.035Z,51.68
2023-04-16T03:47:25.041Z,52.16
2023-04-16T03:48:25.061Z,52.70
2023-04-16T03:49:24.989Z,55.15
2023-04-16T03:50:25.005Z,56.02
2023-04-16T03:51:24.973Z,55.14
2023-04-16T03:52:24.966Z,54.32
2023-04-16T03:53:25.024Z,56.33
2023-04-16T03:54:24.951Z,55.41
2023-04-16T03:55:25.065Z,54.11
2023-04-16T03:56:24.949Z,57.78
2023-04-16T03:57:24.999Z,56.93
2023-04-16T03:58:24.966Z,58.04
2023-04-16T03:59:25.049Z,53.86
2023-04-16T04:00:24.824Z,57.14
2023-04-16T04:01:24.853Z,56.65
2023-04-16T04:02:25.068Z,56.79
2023-04-16T04:03:25.041Z,56.33
2023-04-16T04:04:24.999Z,57.63
2023-04-16T04:05:24.820Z,57.48
2023-04-16T04:06:24.818Z,55.72
2023-04-16T04:07:24.838Z,58.88
2023-04-16T04:08:24.797Z,57.84
2023-04-16T04:09:24.808Z,56.75
2023-04-16T04:10:24.802Z,55.90
2023-04-16T04:11:24.718Z,57.61
2023-04-16T04:12:24.839Z,56.02
2023-04-16T04:13:24.813Z,57.60
2023-04-16T04:14:24.834Z,59.03
2023-04-16T04:15:24.879Z,55.47
2023-04-16T04:16:24.918Z,57.70
2023-04-16T04:17:24.879Z,58.16
2023-04-16T04:18:24.863Z,56.17
2023-04-16T04:19:24.792Z,56.41
2023-04-16T04:20:24.849Z,54.92
2023-04-16T04:21:24.788Z,55.44
2023-04-16T04:22:24.829Z,56.66
2023-04-16T04:23:24.768Z,56.45
2023-04-16T04:24:24.679Z,57.28
2023-04-16T04:25:24.722Z,58.12
2023-04-16T04:26:24.756Z,57.74
2023-04-16T04:27:24.740Z,57.89
2023-04-16T04:28:24.738Z,57.40
2023-04-16T04:29:24.706Z,59.41
2023-04-16T04:30:24.675Z,59.55
2023-04-16T04:31:24.696Z,59.29
2023-04-16T04:32:25.165Z,60.58
2023-04-16T04:33:24.671Z,60.02
2023-04-16T04:34:24.685Z,59.06
2023-04-16T04:35:24.676Z,61.40
2023-04-16T04:36:24.685Z,60.11
2023-04-16T04:37:24.745Z,57.42
2023-04-16T04:38:24.639Z,60.03
2023-04-16T04:39:24.582Z,58.66
2023-04-16T04:40:24.561Z,58.38
2023-04-16T04:41:24.752Z,59.36
2023-04-16T04:42:24.561Z,57.88
2023-04-16T04:43:24.559Z,59.44
2023-04-16T04:44:24.524Z,57.86
2023-04-16T04:45:24.549Z,59.25
2023-04-16T04:46:24.604Z,58.63
2023-04-16T04:47:24.618Z,60.70
2023-04-16T04:48:24.649Z,59.59
2023-04-16T04:49:24.569Z,58.92
2023-04-16T04:50:24.566Z,60.02
2023-04-16T04:51:24.659Z,58.10
2023-04-16T04:52:24.538Z,55.15
2023-04-16T04:53:24.527Z,54.63
2023-04-16T04:54:24.560Z,56.12
2023-04-16T04:55:24.510Z,52.09
2023-04-16T04:56:24.506Z,54.40
2023-04-16T04:57:24.416Z,55.98
2023-04-16T04:58:24.559Z,56.18
2023-04-16T04:59:24.532Z,57.10
2023-04-16T05:00:24.518Z,58.16
2023-04-16T05:01:24.519Z,57.56
2023-04-16T05:02:24.571Z,57.01
2023-04-16T05:03:24.464Z,56.14
2023-04-16T05:04:24.377Z,54.47
2023-04-16T05:05:24.515Z,54.02
2023-04-16T05:06:24.371Z,55.63
2023-04-16T05:07:24.376Z,54.28
2023-04-16T05:08:24.332Z,55.81
2023-04-16T05:09:24.504Z,52.76
2023-04-16T05:10:24.426Z,55.81
2023-04-16T05:11:24.401Z,56.74
2023-04-16T05:12:24.419Z,57.11
2023-04-16T05:13:24.445Z,56.64
2023-04-16T05:14:24.367Z,57.97
2023-04-16T05:15:24.353Z,53.11
2023-04-16T05:16:24.414Z,55.38
2023-04-16T05:17:24.391Z,61.51
2023-04-16T05:18:24.367Z,59.15
2023-04-16T05:19:24.337Z,56.90
2023-04-16T05:20:24.331Z,54.57
2023-04-16T05:21:24.409Z,57.44
2023-04-16T05:22:24.314Z,55.25
2023-04-16T05:23:24.356Z,56.70
2023-04-16T05:24:24.345Z,56.86
2023-04-16T05:25:24.362Z,54.79
2023-04-16T05:26:24.290Z,56.31
2023-04-16T05:27:31.548Z,53.65
2023-04-16T05:28:35.254Z,56.30
2023-04-16T05:29:24.192Z,57.15
2023-04-16T05:30:24.220Z,54.97
2023-04-16T05:31:24.195Z,57.52
2023-04-16T05:32:24.509Z,57.77
2023-04-16T05:33:24.185Z,57.74
2023-04-16T05:34:24.174Z,60.01
2023-04-16T05:35:24.119Z,60.31
2023-04-16T05:36:24.203Z,60.48
2023-04-16T05:37:24.216Z,62.02
2023-04-16T05:38:24.234Z,60.19
2023-04-16T05:39:24.195Z,57.76
2023-04-16T05:40:24.190Z,57.64
2023-04-16T05:41:24.220Z,55.42
2023-04-16T05:42:24.174Z,56.59
2023-04-16T05:43:24.222Z,51.83
2023-04-16T05:44:24.283Z,53.00
2023-04-16T05:45:25.572Z,50.41
2023-04-16T05:46:24.240Z,54.70
2023-04-16T05:47:24.164Z,56.56
2023-04-16T05:48:24.246Z,52.51
2023-04-16T05:49:24.197Z,56.06
2023-04-16T05:50:24.191Z,57.40
2023-04-16T05:51:24.088Z,55.17
2023-04-16T05:52:25.150Z,56.13
2023-04-16T05:53:24.109Z,52.23
2023-04-16T05:54:24.116Z,51.60
2023-04-16T05:55:24.125Z,53.52
2023-04-16T05:56:24.058Z,55.16
2023-04-16T05:57:24.115Z,53.63
2023-04-16T05:58:24.081Z,55.59
2023-04-16T05:59:24.038Z,56.04
2023-04-16T06:00:24.075Z,55.09
2023-04-16T06:01:24.067Z,56.43
2023-04-16T06:02:24.047Z,55.96
2023-04-16T06:03:24.063Z,54.69
2023-04-16T06:04:23.990Z,55.20
2023-04-16T06:05:24.024Z,59.02
2023-04-16T06:06:23.919Z,63.26
2023-04-16T06:07:23.923Z,60.06
2023-04-16T06:08:24.012Z,58.87
2023-04-16T06:09:24.151Z,60.40
2023-04-16T06:10:23.993Z,60.12
2023-04-16T06:11:24.062Z,57.03
2023-04-16T06:12:23.940Z,53.28
2023-04-16T06:13:24.066Z,55.23
2023-04-16T06:14:23.999Z,57.48
2023-04-16T06:15:23.926Z,58.74
2023-04-16T06:16:24.128Z,58.57
2023-04-16T06:17:23.987Z,57.47
2023-04-16T06:18:23.905Z,55.51
2023-04-16T06:19:23.935Z,54.93
2023-04-16T06:20:23.905Z,55.85
2023-04-16T06:21:24.015Z,54.59
2023-04-16T06:22:23.888Z,56.99
2023-04-16T06:23:23.855Z,59.71
2023-04-16T06:24:23.822Z,57.15
2023-04-16T06:25:23.796Z,58.46
2023-04-16T06:26:23.760Z,58.05
2023-04-16T06:27:23.864Z,57.52
2023-04-16T06:28:23.785Z,59.99
2023-04-16T06:29:33.575Z,58.61
2023-04-16T06:30:26.610Z,56.45
2023-04-16T06:31:23.789Z,57.96
2023-04-16T06:32:23.990Z,56.30
2023-04-16T06:33:23.865Z,56.21
2023-04-16T06:34:23.946Z,58.58
2023-04-16T06:35:23.752Z,57.99
2023-04-16T06:36:23.869Z,57.17
2023-04-16T06:37:23.899Z,58.86
2023-04-16T06:38:24.095Z,55.86
2023-04-16T06:39:23.783Z,56.24
2023-04-16T06:40:23.785Z,58.42
2023-04-16T06:41:23.746Z,57.44
2023-04-16T06:42:23.741Z,57.50
2023-04-16T06:43:23.773Z,58.86
2023-04-16T06:44:23.757Z,57.94
2023-04-16T06:45:23.710Z,59.19
2023-04-16T06:46:23.761Z,58.75
2023-04-16T06:47:23.724Z,59.15
2023-04-16T06:48:23.627Z,58.16
2023-04-16T06:49:23.664Z,57.15
2023-04-16T06:50:23.604Z,57.27
2023-04-16T06:51:23.629Z,54.83
2023-04-16T06:52:23.698Z,56.12
2023-04-16T06:53:23.587Z,56.34
2023-04-16T06:54:23.780Z,56.07
2023-04-16T06:55:23.763Z,52.29
2023-04-16T06:56:23.642Z,53.23
2023-04-16T06:57:23.785Z,59.63
2023-04-16T06:58:23.626Z,58.22
2023-04-16T06:59:23.854Z,55.90
2023-04-16T07:00:23.659Z,59.01
2023-04-16T07:01:23.656Z,55.93
2023-04-16T07:02:23.716Z,58.41
2023-04-16T07:03:23.761Z,60.20
2023-04-16T07:04:23.718Z,58.63
2023-04-16T07:05:23.660Z,58.76
2023-04-16T07:06:23.630Z,56.45
2023-04-16T07:07:23.558Z,56.95
2023-04-16T07:08:40.614Z,54.04
2023-04-16T07:09:23.551Z,58.87
2023-04-16T07:10:23.628Z,55.15
2023-04-16T07:11:23.518Z,56.77
2023-04-16T07:12:23.485Z,56.19
2023-04-16T07:13:23.493Z,58.74
2023-04-16T07:14:23.575Z,58.53
2023-04-16T07:15:23.441Z,59.23
2023-04-16T07:16:24.465Z,58.24
2023-04-16T07:17:23.439Z,58.21
2023-04-16T07:18:23.447Z,58.70
2023-04-16T07:19:23.474Z,57.84
2023-04-16T07:20:23.595Z,59.20
2023-04-16T07:21:23.518Z,59.44
2023-04-16T07:22:23.523Z,61.03
2023-04-16T07:23:23.472Z,59.84
2023-04-16T07:24:23.490Z,61.35
2023-04-16T07:25:23.437Z,61.56
2023-04-16T07:26:23.522Z,61.69
2023-04-16T07:27:23.561Z,60.83
2023-04-16T07:28:23.412Z,59.41
2023-04-16T07:29:23.456Z,59.78
2023-04-16T07:30:23.463Z,59.55
2023-04-16T07:31:23.480Z,58.70
2023-04-16T07:32:23.610Z,59.75
2023-04-16T07:33:23.447Z,58.67
2023-04-16T07:34:23.408Z,59.62
2023-04-16T07:35:23.448Z,61.29
2023-04-16T07:36:23.375Z,57.96
2023-04-16T07:37:23.428Z,58.55
2023-04-16T07:38:23.894Z,60.35
2023-04-16T07:39:23.487Z,59.52
2023-04-16T07:40:23.246Z,59.01
2023-04-16T07:41:23.270Z,58.12
2023-04-16T07:42:23.241Z,60.91
2023-04-16T07:43:23.414Z,58.44
2023-04-16T07:44:23.278Z,59.51
2023-04-16T07:45:23.492Z,60.35
2023-04-16T07:46:24.869Z,59.65
2023-04-16T07:47:39.103Z,58.54
2023-04-16T07:48:24.283Z,60.49
2023-04-16T07:49:23.231Z,60.17
2023-04-16T07:50:23.305Z,59.51
2023-04-16T07:51:23.286Z,59.12
2023-04-16T07:52:23.259Z,60.20
2023-04-16T07:53:23.290Z,60.70
2023-04-16T07:54:23.282Z,59.79
2023-04-16T07:55:23.241Z,59.87
2023-04-16T07:56:23.277Z,58.05
2023-04-16T07:57:23.246Z,61.40
2023-04-16T07:58:23.273Z,59.56
2023-04-16T07:59:24.383Z,60.29
2023-04-16T08:00:24.217Z,58.82
2023-04-16T08:01:23.310Z,59.89
2023-04-16T08:02:23.200Z,59.75
2023-04-16T08:03:23.555Z,58.76
2023-04-16T08:04:23.613Z,59.76
2023-04-16T08:05:23.233Z,57.99
2023-04-16T08:06:23.215Z,59.01
2023-04-16T08:07:23.170Z,59.30
2023-04-16T08:08:23.213Z,58.34
2023-04-16T08:09:23.207Z,58.53
2023-04-16T08:10:23.361Z,58.26
2023-04-16T08:11:23.120Z,59.40
2023-04-16T08:12:23.108Z,59.76
2023-04-16T08:13:23.155Z,60.08
2023-04-16T08:14:23.155Z,61.95
2023-04-16T08:15:23.056Z,59.69
2023-04-16T08:16:23.124Z,60.87
2023-04-16T08:17:23.019Z,61.39
2023-04-16T08:18:22.983Z,57.47
2023-04-16T08:19:22.935Z,61.03
2023-04-16T08:20:22.983Z,60.44
2023-04-16T08:21:23.089Z,58.96
2023-04-16T08:22:23.139Z,59.68
2023-04-16T08:23:23.268Z,58.04
2023-04-16T08:24:23.047Z,60.54
2023-04-16T08:25:23.113Z,61.62
2023-04-16T08:26:23.190Z,60.19
2023-04-16T08:27:23.065Z,60.58
2023-04-16T08:28:23.126Z,60.28
2023-04-16T08:29:22.995Z,57.72
2023-04-16T08:30:23.036Z,60.80
2023-04-16T08:31:23.044Z,60.27
2023-04-16T08:32:23.564Z,59.01
2023-04-16T08:33:23.003Z,59.16
2023-04-16T08:34:22.940Z,61.41
2023-04-16T08:35:22.931Z,60.56
2023-04-16T08:36:22.971Z,59.67
2023-04-16T08:37:23.043Z,60.38
2023-04-16T08:38:22.924Z,60.90
2023-04-16T08:39:22.969Z,60.20
2023-04-16T08:40:22.980Z,60.39
2023-04-16T08:41:23.119Z,61.84
2023-04-16T08:42:23.006Z,61.75
2023-04-16T08:43:23.309Z,60.56
2023-04-16T08:44:22.938Z,60.05
2023-04-16T08:45:43.636Z,59.17
2023-04-16T08:46:22.865Z,62.83
2023-04-16T08:47:22.885Z,62.28
2023-04-16T08:48:22.807Z,58.54
2023-04-16T08:49:22.810Z,58.68
2023-04-16T08:51:22.944Z,60.24
2023-04-16T08:52:22.820Z,60.97
2023-04-16T08:53:22.895Z,61.08
2023-04-16T08:54:22.853Z,61.58
2023-04-16T08:55:22.858Z,59.98
2023-04-16T08:56:22.794Z,60.71
2023-04-16T08:57:22.771Z,61.91
2023-04-16T08:58:22.904Z,63.44
2023-04-16T08:59:22.847Z,63.66
2023-04-16T09:00:22.787Z,63.23
2023-04-16T09:01:22.801Z,61.88
2023-04-16T09:02:23.124Z,63.71
2023-04-16T09:03:22.804Z,62.86
2023-04-16T09:04:22.810Z,63.33
2023-04-16T09:05:22.831Z,61.59
2023-04-16T09:06:22.817Z,63.70
2023-04-16T09:08:22.633Z,64.09
2023-04-16T09:09:22.711Z,61.32
2023-04-16T09:10:22.745Z,61.93
2023-04-16T09:11:22.593Z,61.56
2023-04-16T09:12:22.780Z,61.94
2023-04-16T09:13:22.610Z,59.54
2023-04-16T09:14:23.035Z,60.43
2023-04-16T09:15:22.824Z,61.41
2023-04-16T09:16:22.871Z,61.76
2023-04-16T09:17:23.021Z,60.04
2023-04-16T09:18:22.736Z,60.98
2023-04-16T09:19:22.634Z,62.26
2023-04-16T09:20:22.669Z,59.17
2023-04-16T09:21:24.036Z,61.76
2023-04-16T09:22:23.686Z,59.97
2023-04-16T09:23:22.616Z,59.69
2023-04-16T09:24:22.656Z,63.01
2023-04-16T09:25:22.590Z,63.20
2023-04-16T09:26:22.772Z,61.82
2023-04-16T09:27:24.724Z,63.18
2023-04-16T09:28:22.711Z,63.11
2023-04-16T09:29:22.559Z,61.34
2023-04-16T09:30:22.687Z,60.24
2023-04-16T09:31:22.537Z,61.61
2023-04-16T09:32:22.568Z,59.60
2023-04-16T09:33:23.055Z,61.66
2023-04-16T09:34:22.481Z,61.87
2023-04-16T09:35:22.546Z,62.87
2023-04-16T09:36:22.542Z,61.23
2023-04-16T09:37:22.493Z,61.75
2023-04-16T09:38:22.426Z,62.05
2023-04-16T09:39:22.487Z,62.70
2023-04-16T09:40:22.579Z,62.10
2023-04-16T09:41:22.474Z,62.77
2023-04-16T09:42:23.563Z,62.41
2023-04-16T09:43:22.572Z,60.01
2023-04-16T09:44:22.436Z,61.19
2023-04-16T09:45:22.533Z,62.38
2023-04-16T09:46:23.675Z,63.68
2023-04-16T09:47:22.530Z,61.19
2023-04-16T09:48:22.850Z,59.24
2023-04-16T09:49:33.524Z,61.62
2023-04-16T09:50:22.458Z,61.41
2023-04-16T09:51:22.575Z,59.85
2023-04-16T09:52:22.314Z,60.76
2023-04-16T09:53:22.584Z,60.57
2023-04-16T09:54:22.400Z,60.07
2023-04-16T09:55:23.345Z,62.81
2023-04-16T09:56:22.401Z,62.81
2023-04-16T09:57:22.506Z,62.19
2023-04-16T09:58:22.475Z,62.47
2023-04-16T09:59:22.556Z,65.20
2023-04-16T10:00:23.058Z,63.55
2023-04-16T10:01:22.909Z,62.05
2023-04-16T10:02:22.419Z,61.67
2023-04-16T10:03:22.458Z,60.65
2023-04-16T10:04:22.829Z,61.30
2023-04-16T10:05:22.397Z,61.42
2023-04-16T10:06:22.573Z,60.74
2023-04-16T10:07:23.204Z,61.17
2023-04-16T10:08:22.511Z,61.90
2023-04-16T10:09:22.667Z,61.19
2023-04-16T10:10:22.545Z,61.95
2023-04-16T10:11:22.836Z,61.42
2023-04-16T10:12:22.590Z,59.92
2023-04-16T10:13:22.370Z,61.36
2023-04-16T10:14:22.367Z,61.28
2023-04-16T10:15:23.020Z,61.20
2023-04-16T10:16:22.304Z,61.96
2023-04-16T10:17:22.682Z,62.57
2023-04-16T10:18:22.397Z,62.30
2023-04-16T10:19:22.323Z,60.79
2023-04-16T10:20:22.626Z,60.51
2023-04-16T10:21:22.530Z,58.55
2023-04-16T10:22:22.448Z,60.14
2023-04-16T10:23:22.259Z,59.95
2023-04-16T10:24:22.267Z,61.56
2023-04-16T10:25:22.269Z,61.45
2023-04-16T10:26:22.178Z,60.81
2023-04-16T10:27:22.066Z,62.82
2023-04-16T10:28:22.358Z,60.45
2023-04-16T10:29:22.204Z,59.94
2023-04-16T10:30:22.293Z,61.19
2023-04-16T10:31:22.423Z,59.87
2023-04-16T10:32:22.495Z,61.49
2023-04-16T10:33:22.520Z,61.06
2023-04-16T10:34:22.099Z,60.74
2023-04-16T10:35:22.214Z,59.80
2023-04-16T10:36:22.079Z,60.89
2023-04-16T10:37:23.378Z,62.37
2023-04-16T10:38:22.193Z,60.07
2023-04-16T10:39:22.203Z,61.50
2023-04-16T10:40:22.347Z,61.88
2023-04-16T10:41:22.383Z,60.44
2023-04-16T10:42:22.271Z,60.96
2023-04-16T10:43:22.601Z,60.73
2023-04-16T10:44:21.955Z,60.95
2023-04-16T10:45:22.732Z,60.99
2023-04-16T10:46:22.623Z,60.38
2023-04-16T10:47:22.229Z,58.61
2023-04-16T10:48:22.589Z,59.83
2023-04-16T10:49:22.446Z,59.69
2023-04-16T10:50:22.143Z,61.08
2023-04-16T10:51:22.157Z,60.65
2023-04-16T10:52:22.046Z,60.01
2023-04-16T10:53:22.068Z,60.77
2023-04-16T10:54:22.238Z,60.49
2023-04-16T10:55:22.212Z,62.02
2023-04-16T10:56:22.079Z,60.11
2023-04-16T10:57:22.509Z,61.45
2023-04-16T10:58:22.778Z,60.85
2023-04-16T10:59:21.864Z,59.37
2023-04-16T11:00:22.242Z,59.63
2023-04-16T11:01:22.078Z,60.80
2023-04-16T11:02:22.237Z,61.99
2023-04-16T11:03:22.271Z,61.70
2023-04-16T11:04:22.672Z,60.43
2023-04-16T11:05:22.578Z,59.90
2023-04-16T11:06:21.870Z,60.51
2023-04-16T11:07:21.952Z,58.65
2023-04-16T11:08:21.907Z,59.65
2023-04-16T11:09:22.236Z,59.73
2023-04-16T11:10:22.047Z,61.08
2023-04-16T11:11:22.461Z,59.80
2023-04-16T11:12:21.915Z,62.75
2023-04-16T11:13:21.878Z,60.89
2023-04-16T11:14:22.102Z,61.35
2023-04-16T11:15:21.990Z,59.56
2023-04-16T11:16:22.135Z,58.70
2023-04-16T11:17:21.979Z,59.83
2023-04-16T11:18:22.344Z,61.67
2023-04-16T11:19:22.213Z,61.09
2023-04-16T11:20:22.530Z,57.84
2023-04-16T11:21:22.326Z,58.57
2023-04-16T11:22:22.461Z,60.14
2023-04-16T11:23:22.361Z,59.15
2023-04-16T11:24:21.994Z,60.63
2023-04-16T11:25:22.306Z,59.67
2023-04-16T11:26:22.204Z,58.22
2023-04-16T11:27:22.282Z,61.06
2023-04-16T11:28:22.283Z,61.08
2023-04-16T11:29:22.331Z,60.37
2023-04-16T11:30:22.199Z,61.61
2023-04-16T11:31:22.130Z,61.66
2023-04-16T11:32:22.257Z,61.71
2023-04-16T11:33:21.860Z,61.17
2023-04-16T11:34:22.084Z,61.33
2023-04-16T11:35:22.429Z,61.64
2023-04-16T11:36:21.975Z,61.94
2023-04-16T11:37:22.182Z,60.46
2023-04-16T11:38:21.915Z,61.33
2023-04-16T11:39:22.259Z,60.16
2023-04-16T11:40:21.786Z,59.88
2023-04-16T11:41:21.905Z,59.41
2023-04-16T11:42:22.162Z,60.02
2023-04-16T11:43:21.886Z,60.14
2023-04-16T11:44:21.840Z,60.19
2023-04-16T11:45:21.955Z,61.36
2023-04-16T11:46:27.755Z,60.91
2023-04-16T11:47:24.285Z,58.92
2023-04-16T11:48:22.225Z,59.66
2023-04-16T11:49:22.133Z,59.90
2023-04-16T11:50:22.057Z,61.13
2023-04-16T11:51:22.149Z,58.80
2023-04-16T11:52:22.082Z,60.77
2023-04-16T11:53:22.067Z,61.14
2023-04-16T11:54:22.121Z,59.48
2023-04-16T11:55:21.769Z,60.15
2023-04-16T11:56:21.595Z,60.26
2023-04-16T11:57:22.323Z,59.58
2023-04-16T11:58:22.127Z,58.72
2023-04-16T11:59:21.927Z,59.09
2023-04-16T12:00:24.573Z,60.98
2023-04-16T12:01:21.930Z,61.09
2023-04-16T12:02:21.952Z,61.17
2023-04-16T12:03:22.220Z,58.99
2023-04-16T12:04:22.257Z,58.50
2023-04-16T12:05:21.924Z,59.33
2023-04-16T12:06:23.289Z,59.00
2023-04-16T12:07:22.126Z,58.82
2023-04-16T12:08:21.913Z,58.29
2023-04-16T12:09:22.134Z,58.25
2023-04-16T12:10:21.811Z,60.42
2023-04-16T12:11:21.971Z,59.62
2023-04-16T12:12:21.759Z,58.41
2023-04-16T12:13:21.936Z,60.77
2023-04-16T12:14:22.001Z,61.87
2023-04-16T12:15:22.387Z,59.97
2023-04-16T12:16:21.773Z,59.16
2023-04-16T12:17:22.037Z,58.62
2023-04-16T12:18:21.751Z,60.33
2023-04-16T12:19:21.829Z,61.99
2023-04-16T12:20:22.055Z,60.59
2023-04-16T12:21:21.652Z,61.12
2023-04-16T12:22:21.566Z,61.17
2023-04-16T12:23:21.930Z,61.65
2023-04-16T12:24:21.729Z,60.92
2023-04-16T12:25:21.777Z,61.51
2023-04-16T12:26:22.146Z,60.83
2023-04-16T12:27:21.781Z,57.26
2023-04-16T12:28:21.486Z,60.31
2023-04-16T12:29:21.767Z,58.25
2023-04-16T12:30:21.385Z,60.17
2023-04-16T12:31:22.158Z,58.79
2023-04-16T12:32:21.978Z,58.50
2023-04-16T12:33:21.676Z,59.65
2023-04-16T12:34:21.498Z,57.44
2023-04-16T12:35:22.792Z,59.05
2023-04-16T12:36:21.754Z,59.99
2023-04-16T12:37:30.437Z,58.76
2023-04-16T12:38:24.295Z,58.82
2023-04-16T12:39:21.557Z,60.54
2023-04-16T12:40:21.940Z,61.32
2023-04-16T12:41:21.894Z,61.14
2023-04-16T12:42:22.022Z,59.00
2023-04-16T12:43:21.917Z,57.36
2023-04-16T12:44:21.722Z,58.93
2023-04-16T12:45:21.624Z,59.17
2023-04-16T12:46:21.290Z,59.89
2023-04-16T12:47:21.846Z,59.86
2023-04-16T12:48:21.612Z,59.30
2023-04-16T12:49:22.602Z,61.64
2023-04-16T12:50:21.654Z,60.51
2023-04-16T12:51:21.805Z,60.92
2023-04-16T12:52:23.786Z,59.07
2023-04-16T12:53:23.011Z,57.53
2023-04-16T12:54:21.729Z,58.39
2023-04-16T12:55:21.704Z,59.62
2023-04-16T12:56:21.670Z,59.11
2023-04-16T12:57:21.251Z,55.85
2023-04-16T12:58:21.244Z,58.81
2023-04-16T12:59:21.407Z,58.02
2023-04-16T13:00:21.520Z,57.14
2023-04-16T13:01:21.299Z,56.92
2023-04-16T13:02:21.118Z,57.54
2023-04-16T13:03:21.367Z,59.80
2023-04-16T13:04:22.724Z,58.60
2023-04-16T13:05:21.367Z,58.17
2023-04-16T13:06:21.509Z,59.48
2023-04-16T13:07:21.383Z,59.58
2023-04-16T13:08:21.100Z,60.36
2023-04-16T13:09:21.149Z,59.15
2023-04-16T13:10:21.026Z,58.91
2023-04-16T13:11:20.999Z,59.62
2023-04-16T13:12:21.103Z,59.55
2023-04-16T13:13:21.247Z,58.36
2023-04-16T13:14:21.772Z,55.89
2023-04-16T13:15:21.221Z,57.72
2023-04-16T13:16:21.477Z,58.28
2023-04-16T13:17:21.343Z,58.57
2023-04-16T13:18:21.127Z,59.29
2023-04-16T13:19:20.939Z,55.89
2023-04-16T13:20:23.179Z,57.03
2023-04-16T13:21:21.468Z,57.54
2023-04-16T13:22:20.909Z,59.34
2023-04-16T13:23:20.953Z,58.62
2023-04-16T13:24:21.044Z,57.64
2023-04-16T13:25:21.336Z,58.99
2023-04-16T13:26:20.925Z,57.96
2023-04-16T13:27:20.900Z,55.93
2023-04-16T13:28:20.901Z,57.24
2023-04-16T13:29:21.030Z,58.49
2023-04-16T13:30:20.779Z,58.92
2023-04-16T13:31:21.004Z,57.49
2023-04-16T13:32:20.857Z,60.22
2023-04-16T13:33:20.911Z,59.83
2023-04-16T13:34:21.002Z,58.82
2023-04-16T13:35:20.911Z,58.23
2023-04-16T13:36:20.854Z,58.10
2023-04-16T13:37:20.847Z,57.67
2023-04-16T13:38:21.064Z,57.35
2023-04-16T14:27:42.652Z,59.56
2023-04-16T14:28:42.624Z,60.84
2023-04-16T14:29:43.082Z,59.70
2023-04-16T14:35:12.017Z,58.99
2023-04-16T14:36:11.701Z,59.09
2023-04-16T14:37:11.537Z,59.14
2023-04-16T14:38:11.660Z,57.36
2023-04-16T14:39:12.041Z,58.90
2023-04-16T14:40:11.938Z,59.28
2023-04-16T14:41:45.206Z,58.85
2023-04-16T14:42:11.519Z,57.23
2023-04-16T14:43:11.548Z,57.01
2023-04-16T14:44:11.581Z,57.13
2023-04-16T14:45:12.393Z,57.59
2023-04-16T14:46:11.547Z,57.34
2023-04-16T14:47:12.596Z,58.25
2023-04-16T14:48:11.724Z,59.99
2023-04-16T14:49:12.525Z,58.48
2023-04-16T14:50:12.806Z,58.47
2023-04-16T14:51:11.369Z,58.87
2023-04-16T14:52:10.938Z,58.87
2023-04-16T14:53:11.242Z,56.81
2023-04-16T14:58:20.891Z,57.05
2023-04-16T14:59:21.530Z,57.25
2023-04-16T15:00:21.340Z,59.28
2023-04-16T15:01:21.036Z,58.39
2023-04-16T15:02:21.084Z,57.44
2023-04-16T15:03:21.352Z,58.64
2023-04-16T15:04:20.459Z,57.93
2023-04-16T15:05:20.624Z,58.16
2023-04-16T15:06:20.289Z,57.83
2023-04-16T15:07:20.610Z,59.88
2023-04-16T15:08:20.492Z,58.68